sensor_id;sensor_type;location;lat;lon;timestamp;P1;durP1;ratioP1;P2;durP2;ratioP2
9106;SDS011;4589;48.690;8.952;2023-06-10T00:00:54;10.07;;;7.13;;
9106;SDS011;4589;48.690;8.952;2023-06-10T00:03:20;8.70;;;7.87;;
9106;SDS011;4589;48.690;8.952;2023-06-10T00:05:49;7.37;;;6.70;;
9106;SDS011;4589;48.690;8.952;2023-06-10T00:08:15;8.93;;;7.13;;
9106;SDS011;4589;48.690;8.952;2023-06-10T00:10:44;7.33;;;6.70;;
9106;SDS011;4589;48.690;8.952;2023-06-10T00:13:10;7.60;;;6.90;;
9106;SDS011;4589;48.690;8.952;2023-06-10T00:15:36;7.37;;;6.57;;
9106;SDS011;4589;48.690;8.952;2023-06-10T00:18:02;7.10;;;6.50;;
9106;SDS011;4589;48.690;8.952;2023-06-10T00:20:28;9.07;;;7.30;;
9106;SDS011;4589;48.690;8.952;2023-06-10T00:22:55;7.77;;;6.77;;
9106;SDS011;4589;48.690;8.952;2023-06-10T00:25:22;7.80;;;6.90;;
9106;SDS011;4589;48.690;8.952;2023-06-10T00:27:47;7.77;;;7.07;;
9106;SDS011;4589;48.690;8.952;2023-06-10T00:30:13;8.53;;;7.70;;
9106;SDS011;4589;48.690;8.952;2023-06-10T00:32:39;8.43;;;7.57;;
9106;SDS011;4589;48.690;8.952;2023-06-10T00:35:06;7.63;;;6.90;;
9106;SDS011;4589;48.690;8.952;2023-06-10T00:37:32;7.73;;;6.93;;
9106;SDS011;4589;48.690;8.952;2023-06-10T00:40:01;7.60;;;6.73;;
9106;SDS011;4589;48.690;8.952;2023-06-10T00:42:30;6.70;;;5.60;;
9106;SDS011;4589;48.690;8.952;2023-06-10T00:44:55;10.13;;;6.73;;
9106;SDS011;4589;48.690;8.952;2023-06-10T00:47:21;7.87;;;7.07;;
9106;SDS011;4589;48.690;8.952;2023-06-10T00:49:47;8.17;;;7.37;;
9106;SDS011;4589;48.690;8.952;2023-06-10T00:52:15;7.90;;;7.10;;
9106;SDS011;4589;48.690;8.952;2023-06-10T00:54:43;7.63;;;6.93;;
9106;SDS011;4589;48.690;8.952;2023-06-10T00:57:09;8.60;;;7.07;;
9106;SDS011;4589;48.690;8.952;2023-06-10T00:59:35;9.00;;;7.80;;
9106;SDS011;4589;48.690;8.952;2023-06-10T01:02:03;9.17;;;8.30;;
9106;SDS011;4589;48.690;8.952;2023-06-10T01:04:28;7.93;;;7.23;;
9106;SDS011;4589;48.690;8.952;2023-06-10T01:14:55;9.97;;;7.83;;
9106;SDS011;4589;48.690;8.952;2023-06-10T01:17:22;7.87;;;6.87;;
9106;SDS011;4589;48.690;8.952;2023-06-10T01:19:55;8.63;;;7.70;;
9106;SDS011;4589;48.690;8.952;2023-06-10T01:22:22;9.30;;;7.03;;
9106;SDS011;4589;48.690;8.952;2023-06-10T01:24:50;7.60;;;6.80;;
9106;SDS011;4589;48.690;8.952;2023-06-10T01:27:17;8.17;;;7.30;;
9106;SDS011;4589;48.690;8.952;2023-06-10T01:29:49;8.90;;;8.00;;
9106;SDS011;4589;48.690;8.952;2023-06-10T01:32:21;9.33;;;6.57;;
9106;SDS011;4589;48.690;8.952;2023-06-10T01:34:54;6.93;;;6.23;;
9106;SDS011;4589;48.690;8.952;2023-06-10T01:37:21;13.13;;;7.90;;
9106;SDS011;4589;48.690;8.952;2023-06-10T01:39:49;8.63;;;7.73;;
9106;SDS011;4589;48.690;8.952;2023-06-10T01:42:16;9.50;;;7.97;;
9106;SDS011;4589;48.690;8.952;2023-06-10T01:44:42;8.97;;;8.10;;
9106;SDS011;4589;48.690;8.952;2023-06-10T01:47:08;8.03;;;7.23;;
9106;SDS011;4589;48.690;8.952;2023-06-10T01:49:34;8.10;;;7.40;;
9106;SDS011;4589;48.690;8.952;2023-06-10T01:51:59;9.33;;;7.63;;
9106;SDS011;4589;48.690;8.952;2023-06-10T01:54:25;7.50;;;6.70;;
9106;SDS011;4589;48.690;8.952;2023-06-10T01:56:51;9.80;;;8.53;;
9106;SDS011;4589;48.690;8.952;2023-06-10T01:59:17;7.90;;;7.10;;
9106;SDS011;4589;48.690;8.952;2023-06-10T02:01:42;8.00;;;7.00;;
9106;SDS011;4589;48.690;8.952;2023-06-10T02:04:08;9.00;;;8.10;;
9106;SDS011;4589;48.690;8.952;2023-06-10T02:06:34;8.83;;;7.83;;
9106;SDS011;4589;48.690;8.952;2023-06-10T02:09:00;8.60;;;7.70;;
9106;SDS011;4589;48.690;8.952;2023-06-10T02:11:26;8.47;;;7.57;;
9106;SDS011;4589;48.690;8.952;2023-06-10T02:13:52;7.30;;;6.60;;
9106;SDS011;4589;48.690;8.952;2023-06-10T02:16:18;7.67;;;6.87;;
9106;SDS011;4589;48.690;8.952;2023-06-10T02:18:43;8.70;;;7.80;;
9106;SDS011;4589;48.690;8.952;2023-06-10T02:21:09;10.67;;;9.37;;
9106;SDS011;4589;48.690;8.952;2023-06-10T02:23:35;10.07;;;9.10;;
9106;SDS011;4589;48.690;8.952;2023-06-10T02:26:01;9.17;;;8.20;;
9106;SDS011;4589;48.690;8.952;2023-06-10T02:28:27;7.93;;;7.10;;
9106;SDS011;4589;48.690;8.952;2023-06-10T02:30:53;9.30;;;8.43;;
9106;SDS011;4589;48.690;8.952;2023-06-10T02:33:19;8.97;;;8.07;;
9106;SDS011;4589;48.690;8.952;2023-06-10T02:35:45;9.30;;;8.30;;
9106;SDS011;4589;48.690;8.952;2023-06-10T02:38:11;8.10;;;7.27;;
9106;SDS011;4589;48.690;8.952;2023-06-10T02:40:36;9.27;;;8.37;;
9106;SDS011;4589;48.690;8.952;2023-06-10T02:43:02;9.67;;;8.67;;
9106;SDS011;4589;48.690;8.952;2023-06-10T02:45:27;8.53;;;7.73;;
9106;SDS011;4589;48.690;8.952;2023-06-10T02:47:53;9.77;;;8.77;;
9106;SDS011;4589;48.690;8.952;2023-06-10T02:50:19;9.17;;;7.80;;
9106;SDS011;4589;48.690;8.952;2023-06-10T02:52:45;8.30;;;7.50;;
9106;SDS011;4589;48.690;8.952;2023-06-10T02:55:11;8.23;;;7.43;;
9106;SDS011;4589;48.690;8.952;2023-06-10T02:57:37;9.37;;;8.47;;
9106;SDS011;4589;48.690;8.952;2023-06-10T03:00:02;11.10;;;7.87;;
9106;SDS011;4589;48.690;8.952;2023-06-10T03:02:34;8.13;;;7.33;;
9106;SDS011;4589;48.690;8.952;2023-06-10T03:05:03;9.17;;;7.63;;
9106;SDS011;4589;48.690;8.952;2023-06-10T03:07:30;10.47;;;8.73;;
9106;SDS011;4589;48.690;8.952;2023-06-10T03:09:55;8.80;;;7.90;;
9106;SDS011;4589;48.690;8.952;2023-06-10T03:12:21;9.47;;;8.47;;
9106;SDS011;4589;48.690;8.952;2023-06-10T03:14:47;9.50;;;8.60;;
9106;SDS011;4589;48.690;8.952;2023-06-10T03:17:13;9.70;;;8.40;;
9106;SDS011;4589;48.690;8.952;2023-06-10T03:19:39;9.47;;;7.70;;
9106;SDS011;4589;48.690;8.952;2023-06-10T03:22:12;9.53;;;8.37;;
9106;SDS011;4589;48.690;8.952;2023-06-10T03:24:39;9.93;;;8.93;;
9106;SDS011;4589;48.690;8.952;2023-06-10T03:27:14;8.63;;;7.73;;
9106;SDS011;4589;48.690;8.952;2023-06-10T03:29:40;9.83;;;8.83;;
9106;SDS011;4589;48.690;8.952;2023-06-10T03:32:06;10.77;;;9.67;;
9106;SDS011;4589;48.690;8.952;2023-06-10T03:34:32;9.17;;;8.23;;
9106;SDS011;4589;48.690;8.952;2023-06-10T03:36:58;9.50;;;8.47;;
9106;SDS011;4589;48.690;8.952;2023-06-10T03:39:25;8.47;;;7.70;;
9106;SDS011;4589;48.690;8.952;2023-06-10T03:41:50;9.47;;;7.57;;
9106;SDS011;4589;48.690;8.952;2023-06-10T03:44:16;9.77;;;8.33;;
9106;SDS011;4589;48.690;8.952;2023-06-10T03:46:42;10.30;;;9.30;;
9106;SDS011;4589;48.690;8.952;2023-06-10T03:49:08;10.10;;;9.00;;
9106;SDS011;4589;48.690;8.952;2023-06-10T03:51:35;9.70;;;8.70;;
9106;SDS011;4589;48.690;8.952;2023-06-10T03:54:01;8.80;;;7.80;;
9106;SDS011;4589;48.690;8.952;2023-06-10T03:56:27;9.43;;;8.53;;
9106;SDS011;4589;48.690;8.952;2023-06-10T03:58:53;9.47;;;7.93;;
9106;SDS011;4589;48.690;8.952;2023-06-10T04:01:19;8.80;;;7.90;;
9106;SDS011;4589;48.690;8.952;2023-06-10T04:03:46;11.03;;;8.30;;
9106;SDS011;4589;48.690;8.952;2023-06-10T04:06:13;10.77;;;8.80;;
9106;SDS011;4589;48.690;8.952;2023-06-10T04:08:39;11.23;;;9.93;;
9106;SDS011;4589;48.690;8.952;2023-06-10T04:11:05;8.83;;;8.03;;
9106;SDS011;4589;48.690;8.952;2023-06-10T04:13:31;9.40;;;8.40;;
9106;SDS011;4589;48.690;8.952;2023-06-10T04:15:57;10.80;;;9.70;;
9106;SDS011;4589;48.690;8.952;2023-06-10T04:18:24;10.40;;;8.80;;
9106;SDS011;4589;48.690;8.952;2023-06-10T04:20:50;10.87;;;9.77;;
9106;SDS011;4589;48.690;8.952;2023-06-10T04:23:16;11.63;;;9.37;;
9106;SDS011;4589;48.690;8.952;2023-06-10T04:25:42;9.27;;;8.37;;
9106;SDS011;4589;48.690;8.952;2023-06-10T04:28:08;10.03;;;8.80;;
9106;SDS011;4589;48.690;8.952;2023-06-10T04:30:34;10.47;;;9.37;;
9106;SDS011;4589;48.690;8.952;2023-06-10T04:33:00;8.83;;;7.93;;
9106;SDS011;4589;48.690;8.952;2023-06-10T04:35:25;11.27;;;8.77;;
9106;SDS011;4589;48.690;8.952;2023-06-10T04:37:52;9.80;;;8.90;;
9106;SDS011;4589;48.690;8.952;2023-06-10T04:40:19;9.93;;;8.43;;
9106;SDS011;4589;48.690;8.952;2023-06-10T04:42:44;9.27;;;8.27;;
9106;SDS011;4589;48.690;8.952;2023-06-10T04:45:10;11.63;;;9.37;;
9106;SDS011;4589;48.690;8.952;2023-06-10T04:47:36;12.77;;;9.53;;
9106;SDS011;4589;48.690;8.952;2023-06-10T04:50:02;9.60;;;8.60;;
9106;SDS011;4589;48.690;8.952;2023-06-10T04:52:29;8.77;;;7.87;;
9106;SDS011;4589;48.690;8.952;2023-06-10T04:54:55;9.40;;;8.40;;
9106;SDS011;4589;48.690;8.952;2023-06-10T04:57:23;8.87;;;7.87;;
9106;SDS011;4589;48.690;8.952;2023-06-10T04:59:48;9.73;;;7.70;;
9106;SDS011;4589;48.690;8.952;2023-06-10T05:02:14;8.77;;;7.87;;
9106;SDS011;4589;48.690;8.952;2023-06-10T05:04:40;8.23;;;7.03;;
9106;SDS011;4589;48.690;8.952;2023-06-10T05:07:05;9.13;;;7.77;;
9106;SDS011;4589;48.690;8.952;2023-06-10T05:09:31;9.10;;;8.20;;
9106;SDS011;4589;48.690;8.952;2023-06-10T05:11:58;8.50;;;7.63;;
9106;SDS011;4589;48.690;8.952;2023-06-10T05:14:23;8.57;;;7.67;;
9106;SDS011;4589;48.690;8.952;2023-06-10T05:16:49;10.60;;;9.47;;
9106;SDS011;4589;48.690;8.952;2023-06-10T05:19:15;11.77;;;8.37;;
9106;SDS011;4589;48.690;8.952;2023-06-10T05:21:44;8.50;;;7.53;;
9106;SDS011;4589;48.690;8.952;2023-06-10T05:24:10;7.93;;;7.10;;
9106;SDS011;4589;48.690;8.952;2023-06-10T05:26:36;8.20;;;7.40;;
9106;SDS011;4589;48.690;8.952;2023-06-10T05:29:05;8.17;;;7.37;;
9106;SDS011;4589;48.690;8.952;2023-06-10T05:31:31;11.13;;;8.17;;
9106;SDS011;4589;48.690;8.952;2023-06-10T05:33:57;11.00;;;9.50;;
9106;SDS011;4589;48.690;8.952;2023-06-10T05:36:23;9.23;;;8.37;;
9106;SDS011;4589;48.690;8.952;2023-06-10T05:38:51;12.13;;;8.20;;
9106;SDS011;4589;48.690;8.952;2023-06-10T05:41:16;8.77;;;7.83;;
9106;SDS011;4589;48.690;8.952;2023-06-10T05:43:42;8.67;;;7.77;;
9106;SDS011;4589;48.690;8.952;2023-06-10T05:46:07;8.63;;;7.83;;
9106;SDS011;4589;48.690;8.952;2023-06-10T05:48:33;8.47;;;7.67;;
9106;SDS011;4589;48.690;8.952;2023-06-10T05:50:59;7.47;;;6.77;;
9106;SDS011;4589;48.690;8.952;2023-06-10T05:53:25;8.80;;;6.87;;
9106;SDS011;4589;48.690;8.952;2023-06-10T05:55:50;8.80;;;7.90;;
9106;SDS011;4589;48.690;8.952;2023-06-10T05:58:17;6.57;;;6.07;;
9106;SDS011;4589;48.690;8.952;2023-06-10T06:00:42;8.03;;;7.23;;
9106;SDS011;4589;48.690;8.952;2023-06-10T06:03:08;8.30;;;7.63;;
9106;SDS011;4589;48.690;8.952;2023-06-10T06:05:34;7.37;;;6.77;;
9106;SDS011;4589;48.690;8.952;2023-06-10T06:08:02;7.10;;;6.40;;
9106;SDS011;4589;48.690;8.952;2023-06-10T06:10:28;6.77;;;6.17;;
9106;SDS011;4589;48.690;8.952;2023-06-10T06:12:54;8.80;;;6.53;;
9106;SDS011;4589;48.690;8.952;2023-06-10T06:15:20;6.73;;;5.63;;
9106;SDS011;4589;48.690;8.952;2023-06-10T06:17:45;6.70;;;6.10;;
9106;SDS011;4589;48.690;8.952;2023-06-10T06:20:11;6.23;;;5.70;;
9106;SDS011;4589;48.690;8.952;2023-06-10T06:22:37;6.50;;;5.90;;
9106;SDS011;4589;48.690;8.952;2023-06-10T06:25:03;5.87;;;4.80;;
9106;SDS011;4589;48.690;8.952;2023-06-10T06:27:29;5.37;;;4.87;;
9106;SDS011;4589;48.690;8.952;2023-06-10T06:29:55;6.10;;;5.60;;
9106;SDS011;4589;48.690;8.952;2023-06-10T06:32:21;4.77;;;4.37;;
9106;SDS011;4589;48.690;8.952;2023-06-10T06:34:47;8.87;;;6.20;;
9106;SDS011;4589;48.690;8.952;2023-06-10T06:37:18;5.57;;;5.07;;
9106;SDS011;4589;48.690;8.952;2023-06-10T06:39:49;5.90;;;5.30;;
9106;SDS011;4589;48.690;8.952;2023-06-10T06:42:18;5.80;;;5.30;;
9106;SDS011;4589;48.690;8.952;2023-06-10T06:44:44;5.90;;;5.40;;
9106;SDS011;4589;48.690;8.952;2023-06-10T06:47:10;5.87;;;5.43;;
9106;SDS011;4589;48.690;8.952;2023-06-10T06:49:36;5.23;;;4.80;;
9106;SDS011;4589;48.690;8.952;2023-06-10T06:52:02;5.67;;;5.07;;
9106;SDS011;4589;48.690;8.952;2023-06-10T06:54:28;4.93;;;4.53;;
9106;SDS011;4589;48.690;8.952;2023-06-10T06:56:54;5.47;;;4.97;;
9106;SDS011;4589;48.690;8.952;2023-06-10T06:59:19;5.03;;;4.63;;
9106;SDS011;4589;48.690;8.952;2023-06-10T07:01:45;5.23;;;4.73;;
9106;SDS011;4589;48.690;8.952;2023-06-10T07:04:11;10.20;;;5.13;;
9106;SDS011;4589;48.690;8.952;2023-06-10T07:06:40;5.63;;;5.07;;
9106;SDS011;4589;48.690;8.952;2023-06-10T07:09:05;5.27;;;4.60;;
9106;SDS011;4589;48.690;8.952;2023-06-10T07:11:32;9.90;;;5.33;;
9106;SDS011;4589;48.690;8.952;2023-06-10T07:13:58;5.03;;;4.63;;
9106;SDS011;4589;48.690;8.952;2023-06-10T07:16:23;5.40;;;4.90;;
9106;SDS011;4589;48.690;8.952;2023-06-10T07:18:49;5.83;;;5.20;;
9106;SDS011;4589;48.690;8.952;2023-06-10T07:21:15;5.27;;;4.77;;
9106;SDS011;4589;48.690;8.952;2023-06-10T07:23:43;6.07;;;5.10;;
9106;SDS011;4589;48.690;8.952;2023-06-10T07:26:09;4.87;;;4.47;;
9106;SDS011;4589;48.690;8.952;2023-06-10T07:28:39;4.23;;;3.93;;
9106;SDS011;4589;48.690;8.952;2023-06-10T07:31:08;4.97;;;4.50;;
9106;SDS011;4589;48.690;8.952;2023-06-10T07:33:34;4.13;;;3.80;;
9106;SDS011;4589;48.690;8.952;2023-06-10T07:35:59;4.80;;;4.10;;
9106;SDS011;4589;48.690;8.952;2023-06-10T07:38:26;5.50;;;4.40;;
9106;SDS011;4589;48.690;8.952;2023-06-10T07:40:51;4.53;;;4.13;;
9106;SDS011;4589;48.690;8.952;2023-06-10T07:43:18;4.53;;;4.13;;
9106;SDS011;4589;48.690;8.952;2023-06-10T07:45:44;4.70;;;4.30;;
9106;SDS011;4589;48.690;8.952;2023-06-10T07:48:10;7.80;;;3.50;;
9106;SDS011;4589;48.690;8.952;2023-06-10T07:50:36;4.37;;;3.80;;
9106;SDS011;4589;48.690;8.952;2023-06-10T07:53:01;4.00;;;3.67;;
9106;SDS011;4589;48.690;8.952;2023-06-10T07:55:27;3.50;;;3.20;;
9106;SDS011;4589;48.690;8.952;2023-06-10T07:57:53;3.43;;;3.13;;
9106;SDS011;4589;48.690;8.952;2023-06-10T08:00:19;4.10;;;3.80;;
9106;SDS011;4589;48.690;8.952;2023-06-10T08:02:46;4.50;;;4.10;;
9106;SDS011;4589;48.690;8.952;2023-06-10T08:05:12;4.07;;;3.77;;
9106;SDS011;4589;48.690;8.952;2023-06-10T08:07:39;6.60;;;4.00;;
9106;SDS011;4589;48.690;8.952;2023-06-10T08:10:05;3.87;;;3.57;;
9106;SDS011;4589;48.690;8.952;2023-06-10T08:12:32;4.57;;;4.27;;
9106;SDS011;4589;48.690;8.952;2023-06-10T08:14:58;4.47;;;4.07;;
9106;SDS011;4589;48.690;8.952;2023-06-10T08:17:24;3.73;;;3.43;;
9106;SDS011;4589;48.690;8.952;2023-06-10T08:19:50;4.40;;;4.00;;
9106;SDS011;4589;48.690;8.952;2023-06-10T08:22:16;4.33;;;3.93;;
9106;SDS011;4589;48.690;8.952;2023-06-10T08:24:42;4.40;;;4.10;;
9106;SDS011;4589;48.690;8.952;2023-06-10T08:27:08;4.40;;;4.10;;
9106;SDS011;4589;48.690;8.952;2023-06-10T08:29:34;4.30;;;3.90;;
9106;SDS011;4589;48.690;8.952;2023-06-10T08:31:59;3.90;;;3.60;;
9106;SDS011;4589;48.690;8.952;2023-06-10T08:34:25;4.30;;;4.00;;
9106;SDS011;4589;48.690;8.952;2023-06-10T08:36:51;3.80;;;3.53;;
9106;SDS011;4589;48.690;8.952;2023-06-10T08:39:20;4.10;;;3.80;;
9106;SDS011;4589;48.690;8.952;2023-06-10T08:45:04;4.13;;;3.83;;
9106;SDS011;4589;48.690;8.952;2023-06-10T08:47:32;4.30;;;4.00;;
9106;SDS011;4589;48.690;8.952;2023-06-10T08:50:02;4.47;;;3.33;;
9106;SDS011;4589;48.690;8.952;2023-06-10T08:52:29;3.77;;;3.47;;
9106;SDS011;4589;48.690;8.952;2023-06-10T08:55:03;3.60;;;3.30;;
9106;SDS011;4589;48.690;8.952;2023-06-10T08:57:33;4.40;;;4.10;;
9106;SDS011;4589;48.690;8.952;2023-06-10T08:59:59;4.00;;;3.63;;
9106;SDS011;4589;48.690;8.952;2023-06-10T09:02:25;3.93;;;3.50;;
9106;SDS011;4589;48.690;8.952;2023-06-10T09:04:52;4.20;;;3.87;;
9106;SDS011;4589;48.690;8.952;2023-06-10T09:07:19;4.33;;;3.70;;
9106;SDS011;4589;48.690;8.952;2023-06-10T09:09:45;3.83;;;3.43;;
9106;SDS011;4589;48.690;8.952;2023-06-10T09:12:12;4.83;;;4.00;;
9106;SDS011;4589;48.690;8.952;2023-06-10T09:14:38;4.50;;;3.80;;
9106;SDS011;4589;48.690;8.952;2023-06-10T09:17:05;4.40;;;4.00;;
9106;SDS011;4589;48.690;8.952;2023-06-10T09:19:31;5.50;;;3.67;;
9106;SDS011;4589;48.690;8.952;2023-06-10T09:21:57;5.13;;;4.33;;
9106;SDS011;4589;48.690;8.952;2023-06-10T09:24:24;4.10;;;3.80;;
9106;SDS011;4589;48.690;8.952;2023-06-10T09:26:49;4.10;;;3.60;;
9106;SDS011;4589;48.690;8.952;2023-06-10T09:29:16;4.00;;;3.43;;
9106;SDS011;4589;48.690;8.952;2023-06-10T09:31:42;3.43;;;3.20;;
9106;SDS011;4589;48.690;8.952;2023-06-10T09:34:10;3.53;;;3.30;;
9106;SDS011;4589;48.690;8.952;2023-06-10T09:36:37;3.93;;;3.63;;
9106;SDS011;4589;48.690;8.952;2023-06-10T09:39:03;3.80;;;3.50;;
9106;SDS011;4589;48.690;8.952;2023-06-10T09:41:33;3.80;;;3.50;;
9106;SDS011;4589;48.690;8.952;2023-06-10T09:44:00;3.80;;;3.50;;
9106;SDS011;4589;48.690;8.952;2023-06-10T09:46:30;4.33;;;3.50;;
9106;SDS011;4589;48.690;8.952;2023-06-10T09:48:57;4.33;;;3.87;;
9106;SDS011;4589;48.690;8.952;2023-06-10T09:51:23;4.20;;;3.80;;
9106;SDS011;4589;48.690;8.952;2023-06-10T09:53:50;3.97;;;3.67;;
9106;SDS011;4589;48.690;8.952;2023-06-10T09:56:17;3.87;;;3.50;;
9106;SDS011;4589;48.690;8.952;2023-06-10T09:58:44;4.67;;;4.27;;
9106;SDS011;4589;48.690;8.952;2023-06-10T10:01:11;4.57;;;4.13;;
9106;SDS011;4589;48.690;8.952;2023-06-10T10:03:45;4.70;;;4.40;;
9106;SDS011;4589;48.690;8.952;2023-06-10T10:06:12;4.10;;;3.70;;
9106;SDS011;4589;48.690;8.952;2023-06-10T10:08:40;4.50;;;4.10;;
9106;SDS011;4589;48.690;8.952;2023-06-10T10:11:06;4.13;;;3.83;;
9106;SDS011;4589;48.690;8.952;2023-06-10T10:13:33;4.50;;;4.10;;
9106;SDS011;4589;48.690;8.952;2023-06-10T10:16:00;6.60;;;3.90;;
9106;SDS011;4589;48.690;8.952;2023-06-10T10:18:29;4.30;;;3.77;;
9106;SDS011;4589;48.690;8.952;2023-06-10T10:20:57;4.23;;;3.93;;
9106;SDS011;4589;48.690;8.952;2023-06-10T10:23:31;4.53;;;4.13;;
9106;SDS011;4589;48.690;8.952;2023-06-10T10:26:04;4.60;;;4.10;;
9106;SDS011;4589;48.690;8.952;2023-06-10T10:28:37;4.00;;;3.70;;
9106;SDS011;4589;48.690;8.952;2023-06-10T10:31:08;4.30;;;3.90;;
9106;SDS011;4589;48.690;8.952;2023-06-10T10:36:22;4.20;;;3.90;;
9106;SDS011;4589;48.690;8.952;2023-06-10T10:38:48;4.63;;;4.27;;
9106;SDS011;4589;48.690;8.952;2023-06-10T10:41:15;4.67;;;4.27;;
9106;SDS011;4589;48.690;8.952;2023-06-10T10:43:41;5.70;;;4.20;;
9106;SDS011;4589;48.690;8.952;2023-06-10T10:46:13;4.77;;;4.37;;
9106;SDS011;4589;48.690;8.952;2023-06-10T10:48:41;4.33;;;3.93;;
9106;SDS011;4589;48.690;8.952;2023-06-10T10:51:07;3.67;;;3.37;;
9106;SDS011;4589;48.690;8.952;2023-06-10T10:53:33;3.87;;;3.57;;
9106;SDS011;4589;48.690;8.952;2023-06-10T10:56:00;4.30;;;3.90;;
9106;SDS011;4589;48.690;8.952;2023-06-10T10:58:37;4.30;;;3.87;;
9106;SDS011;4589;48.690;8.952;2023-06-10T11:01:13;4.23;;;3.83;;
9106;SDS011;4589;48.690;8.952;2023-06-10T11:03:46;4.37;;;3.97;;
9106;SDS011;4589;48.690;8.952;2023-06-10T11:06:14;3.50;;;3.20;;
9106;SDS011;4589;48.690;8.952;2023-06-10T11:11:23;4.33;;;4.03;;
9106;SDS011;4589;48.690;8.952;2023-06-10T11:16:37;4.67;;;4.17;;
9106;SDS011;4589;48.690;8.952;2023-06-10T11:19:05;3.80;;;3.50;;
9106;SDS011;4589;48.690;8.952;2023-06-10T11:21:31;4.67;;;4.00;;
9106;SDS011;4589;48.690;8.952;2023-06-10T11:23:57;3.83;;;3.53;;
9106;SDS011;4589;48.690;8.952;2023-06-10T11:31:22;3.90;;;3.50;;
9106;SDS011;4589;48.690;8.952;2023-06-10T11:34:07;4.37;;;3.97;;
9106;SDS011;4589;48.690;8.952;2023-06-10T11:36:33;4.40;;;4.00;;
9106;SDS011;4589;48.690;8.952;2023-06-10T11:39:05;4.13;;;3.53;;
9106;SDS011;4589;48.690;8.952;2023-06-10T11:41:32;4.43;;;4.03;;
9106;SDS011;4589;48.690;8.952;2023-06-10T11:44:02;4.47;;;4.07;;
9106;SDS011;4589;48.690;8.952;2023-06-10T11:46:35;4.37;;;3.93;;
9106;SDS011;4589;48.690;8.952;2023-06-10T11:49:01;4.07;;;3.67;;
9106;SDS011;4589;48.690;8.952;2023-06-10T11:51:28;3.80;;;3.50;;
9106;SDS011;4589;48.690;8.952;2023-06-10T11:53:55;4.40;;;4.10;;
9106;SDS011;4589;48.690;8.952;2023-06-10T11:56:21;3.40;;;3.20;;
9106;SDS011;4589;48.690;8.952;2023-06-10T11:58:55;3.83;;;3.53;;
9106;SDS011;4589;48.690;8.952;2023-06-10T12:01:22;3.87;;;3.57;;
9106;SDS011;4589;48.690;8.952;2023-06-10T12:06:37;4.57;;;4.27;;
9106;SDS011;4589;48.690;8.952;2023-06-10T12:09:24;4.53;;;3.80;;
9106;SDS011;4589;48.690;8.952;2023-06-10T12:11:56;3.87;;;3.57;;
9106;SDS011;4589;48.690;8.952;2023-06-10T12:19:50;4.00;;;3.50;;
9106;SDS011;4589;48.690;8.952;2023-06-10T12:22:16;4.30;;;4.00;;
9106;SDS011;4589;48.690;8.952;2023-06-10T12:25:00;4.07;;;3.77;;
9106;SDS011;4589;48.690;8.952;2023-06-10T12:27:28;4.80;;;3.87;;
9106;SDS011;4589;48.690;8.952;2023-06-10T12:29:54;4.07;;;3.77;;
9106;SDS011;4589;48.690;8.952;2023-06-10T12:32:34;4.90;;;4.13;;
9106;SDS011;4589;48.690;8.952;2023-06-10T12:35:10;4.33;;;3.93;;
9106;SDS011;4589;48.690;8.952;2023-06-10T12:37:37;4.40;;;4.00;;
9106;SDS011;4589;48.690;8.952;2023-06-10T12:40:06;4.60;;;4.23;;
9106;SDS011;4589;48.690;8.952;2023-06-10T12:42:34;6.33;;;3.97;;
9106;SDS011;4589;48.690;8.952;2023-06-10T12:45:01;4.33;;;4.03;;
9106;SDS011;4589;48.690;8.952;2023-06-10T12:47:31;4.37;;;3.53;;
9106;SDS011;4589;48.690;8.952;2023-06-10T12:49:58;3.83;;;3.60;;
9106;SDS011;4589;48.690;8.952;2023-06-10T12:52:25;3.70;;;3.37;;
9106;SDS011;4589;48.690;8.952;2023-06-10T12:54:50;3.50;;;3.20;;
9106;SDS011;4589;48.690;8.952;2023-06-10T12:57:17;3.70;;;3.40;;
9106;SDS011;4589;48.690;8.952;2023-06-10T12:59:43;4.03;;;3.63;;
9106;SDS011;4589;48.690;8.952;2023-06-10T13:02:15;4.17;;;3.87;;
9106;SDS011;4589;48.690;8.952;2023-06-10T13:04:41;5.17;;;4.67;;
9106;SDS011;4589;48.690;8.952;2023-06-10T13:07:07;4.73;;;4.43;;
9106;SDS011;4589;48.690;8.952;2023-06-10T13:09:33;4.87;;;4.40;;
9106;SDS011;4589;48.690;8.952;2023-06-10T13:11:59;4.50;;;4.20;;
9106;SDS011;4589;48.690;8.952;2023-06-10T13:14:25;6.00;;;4.80;;
9106;SDS011;4589;48.690;8.952;2023-06-10T13:16:50;6.20;;;4.43;;
9106;SDS011;4589;48.690;8.952;2023-06-10T13:19:16;4.80;;;3.90;;
9106;SDS011;4589;48.690;8.952;2023-06-10T13:21:41;5.80;;;4.63;;
9106;SDS011;4589;48.690;8.952;2023-06-10T13:24:07;6.03;;;3.87;;
9106;SDS011;4589;48.690;8.952;2023-06-10T13:26:32;4.93;;;4.53;;
9106;SDS011;4589;48.690;8.952;2023-06-10T13:28:58;4.67;;;4.30;;
9106;SDS011;4589;48.690;8.952;2023-06-10T13:31:24;4.83;;;4.03;;
9106;SDS011;4589;48.690;8.952;2023-06-10T13:33:50;3.90;;;3.37;;
9106;SDS011;4589;48.690;8.952;2023-06-10T13:36:16;4.50;;;4.10;;
9106;SDS011;4589;48.690;8.952;2023-06-10T13:38:42;6.10;;;3.90;;
9106;SDS011;4589;48.690;8.952;2023-06-10T13:41:08;4.90;;;4.43;;
9106;SDS011;4589;48.690;8.952;2023-06-10T13:43:35;6.03;;;4.40;;
9106;SDS011;4589;48.690;8.952;2023-06-10T13:46:01;4.67;;;4.23;;
9106;SDS011;4589;48.690;8.952;2023-06-10T13:48:27;3.80;;;3.50;;
9106;SDS011;4589;48.690;8.952;2023-06-10T13:50:52;4.23;;;3.93;;
9106;SDS011;4589;48.690;8.952;2023-06-10T13:53:18;4.97;;;4.00;;
9106;SDS011;4589;48.690;8.952;2023-06-10T13:55:44;3.60;;;3.30;;
9106;SDS011;4589;48.690;8.952;2023-06-10T13:58:09;4.10;;;3.80;;
9106;SDS011;4589;48.690;8.952;2023-06-10T14:00:35;3.77;;;3.47;;
9106;SDS011;4589;48.690;8.952;2023-06-10T14:03:01;4.50;;;4.10;;
9106;SDS011;4589;48.690;8.952;2023-06-10T14:05:28;4.60;;;4.20;;
9106;SDS011;4589;48.690;8.952;2023-06-10T14:07:54;4.70;;;4.30;;
9106;SDS011;4589;48.690;8.952;2023-06-10T14:10:19;4.30;;;4.00;;
9106;SDS011;4589;48.690;8.952;2023-06-10T14:12:45;3.77;;;3.47;;
9106;SDS011;4589;48.690;8.952;2023-06-10T14:15:11;4.00;;;3.70;;
9106;SDS011;4589;48.690;8.952;2023-06-10T14:17:37;4.00;;;3.70;;
9106;SDS011;4589;48.690;8.952;2023-06-10T14:20:03;4.00;;;3.60;;
9106;SDS011;4589;48.690;8.952;2023-06-10T14:22:29;3.57;;;3.27;;
9106;SDS011;4589;48.690;8.952;2023-06-10T14:24:54;4.07;;;3.77;;
9106;SDS011;4589;48.690;8.952;2023-06-10T14:27:20;4.20;;;3.90;;
9106;SDS011;4589;48.690;8.952;2023-06-10T14:29:46;4.33;;;3.93;;
9106;SDS011;4589;48.690;8.952;2023-06-10T14:32:12;4.10;;;3.80;;
9106;SDS011;4589;48.690;8.952;2023-06-10T14:34:38;4.60;;;4.20;;
9106;SDS011;4589;48.690;8.952;2023-06-10T14:37:04;5.07;;;4.57;;
9106;SDS011;4589;48.690;8.952;2023-06-10T14:39:32;4.43;;;3.93;;
9106;SDS011;4589;48.690;8.952;2023-06-10T14:41:58;4.20;;;3.90;;
9106;SDS011;4589;48.690;8.952;2023-06-10T14:44:24;4.47;;;4.17;;
9106;SDS011;4589;48.690;8.952;2023-06-10T14:46:49;6.63;;;3.70;;
9106;SDS011;4589;48.690;8.952;2023-06-10T14:49:15;4.73;;;4.33;;
9106;SDS011;4589;48.690;8.952;2023-06-10T14:51:40;3.83;;;3.53;;
9106;SDS011;4589;48.690;8.952;2023-06-10T14:54:06;4.80;;;3.60;;
9106;SDS011;4589;48.690;8.952;2023-06-10T14:56:32;3.87;;;3.57;;
9106;SDS011;4589;48.690;8.952;2023-06-10T14:58:58;4.47;;;4.07;;
9106;SDS011;4589;48.690;8.952;2023-06-10T15:01:24;9.63;;;4.00;;
9106;SDS011;4589;48.690;8.952;2023-06-10T15:03:50;4.20;;;3.90;;
9106;SDS011;4589;48.690;8.952;2023-06-10T15:06:16;3.80;;;3.50;;
9106;SDS011;4589;48.690;8.952;2023-06-10T15:08:45;3.50;;;3.20;;
9106;SDS011;4589;48.690;8.952;2023-06-10T15:11:13;5.00;;;3.83;;
9106;SDS011;4589;48.690;8.952;2023-06-10T15:13:39;4.37;;;3.30;;
9106;SDS011;4589;48.690;8.952;2023-06-10T15:16:04;4.13;;;3.83;;
9106;SDS011;4589;48.690;8.952;2023-06-10T15:18:31;4.93;;;4.53;;
9106;SDS011;4589;48.690;8.952;2023-06-10T15:20:57;5.53;;;4.50;;
9106;SDS011;4589;48.690;8.952;2023-06-10T15:23:22;3.90;;;3.47;;
9106;SDS011;4589;48.690;8.952;2023-06-10T15:25:48;4.00;;;3.70;;
9106;SDS011;4589;48.690;8.952;2023-06-10T15:28:13;4.10;;;3.53;;
9106;SDS011;4589;48.690;8.952;2023-06-10T15:30:39;4.00;;;3.70;;
9106;SDS011;4589;48.690;8.952;2023-06-10T15:33:05;4.30;;;4.00;;
9106;SDS011;4589;48.690;8.952;2023-06-10T15:35:31;4.30;;;4.00;;
9106;SDS011;4589;48.690;8.952;2023-06-10T15:37:57;4.20;;;3.90;;
9106;SDS011;4589;48.690;8.952;2023-06-10T15:40:23;4.37;;;4.07;;
9106;SDS011;4589;48.690;8.952;2023-06-10T15:42:49;5.60;;;4.97;;
9106;SDS011;4589;48.690;8.952;2023-06-10T15:45:15;5.57;;;4.40;;